Terminal Aerodrome Forecast
Issued by NWS

Home | Current Version | Previous Version | Text Only | Print | Product List | Glossary On
Versions: 1 2 3 4 5 6 7 8 9 10 11
527
FTUS46 KEKA 232320
TAFUKI
TAF
KUKI 232320Z 2400/2424 30010KT P6SM SCT050 BKN250
     FM240300 34006KT P6SM BKN120
     FM241300 36005KT 6SM -RA OVC030
     FM241800 29010KT 6SM -RA BR OVC015=

USA.gov is the U.S. government's official web portal to all federal, state and local government web resources and services.